Time;durP1;ratioP1;P1;durP2;ratioP2;P2;SDS_P1;SDS_P2;PMS_P1;PMS_P2;Temp;Humidity;BMP_temperature;BMP_pressure;BME280_temperature;BME280_humidity;BME280_pressure;Samples;Min_cycle;Max_cycle;Signal;HPM_P1;HPM_P2
2020/12/23 00:00:12;;;;;;;98.60;61.08;;;231.30;1945.60;;;;;;5072870;28;20032;-58
2020/12/23 00:02:42;;;;;;;105.60;62.13;;;256.10;1945.60;;;;;;5071228;28;20021;-58
2020/12/23 00:05:11;;;;;;;105.05;63.13;;;256.20;1945.60;;;;;;5072349;28;20029;-56
2020/12/23 00:07:36;;;;;;;103.32;61.65;;;256.30;1894.40;;;;;;5072557;28;20025;-59
2020/12/23 00:10:06;;;;;;;99.45;61.35;;;256.40;1894.40;;;;;;5072293;28;20040;-61
2020/12/23 00:12:35;;;;;;;98.00;61.80;;;256.40;1868.80;;;;;;5072072;28;20386;-60
2020/12/23 00:15:03;;;;;;;103.78;60.33;;;256.50;1868.80;;;;;;5072543;28;20161;-57
2020/12/23 00:17:29;;;;;;;107.22;58.75;;;256.50;1868.80;;;;;;5072265;28;20100;-60
2020/12/23 00:19:54;;;;;;;97.38;58.92;;;256.50;1894.40;;;;;;5072146;28;20558;-59
2020/12/23 00:22:20;;;;;;;97.90;59.35;;;256.50;1894.40;;;;;;5072775;28;20021;-61
2020/12/23 00:24:46;;;;;;;100.00;61.10;;;256.50;1894.40;;;;;;5073721;28;20058;-58
2020/12/23 00:27:12;;;;;;;101.55;60.47;;;256.40;1868.80;;;;;;5060407;28;20059;-60
2020/12/23 00:29:38;;;;;;;96.07;58.33;;;256.40;1894.40;;;;;;5078800;28;20165;-58
2020/12/23 00:32:05;;;;;;;97.53;61.33;;;256.50;1894.40;;;;;;5078835;28;20025;-61
2020/12/23 00:34:31;;;;;;;101.88;61.60;;;256.50;1894.40;;;;;;5061139;28;20021;-57
2020/12/23 00:36:59;;;;;;;107.25;67.35;;;256.40;1894.40;;;;;;5078714;28;20025;-59
2020/12/23 00:39:25;;;;;;;103.93;63.75;;;256.50;1894.40;;;;;;5078914;28;20028;-60
2020/12/23 00:41:51;;;;;;;101.63;61.40;;;256.50;1868.80;;;;;;5076074;28;20020;-60
2020/12/23 00:44:18;;;;;;;105.15;62.67;;;256.20;1868.80;;;;;;5078747;28;20031;-59
2020/12/23 00:46:44;;;;;;;102.50;62.55;;;256.00;1894.40;;;;;;5078957;28;20021;-60
2020/12/23 00:49:11;;;;;;;110.47;63.72;;;256.10;1894.40;;;;;;5078989;28;20055;-62
2020/12/23 00:51:36;;;;;;;101.68;60.63;;;256.10;1894.40;;;;;;5078393;28;20032;-57
2020/12/23 00:54:02;;;;;;;102.75;61.58;;;256.10;1894.40;;;;;;5078676;28;20033;-60
2020/12/23 00:56:28;;;;;;;103.20;60.67;;;256.30;1894.40;;;;;;5078682;28;20374;-60
2020/12/23 00:58:54;;;;;;;111.70;64.60;;;256.40;1868.80;;;;;;5078242;28;20111;-61
2020/12/23 01:01:19;;;;;;;110.00;64.80;;;256.30;1817.60;;;;;;5078547;28;20029;-60
2020/12/23 01:03:46;;;;;;;104.50;60.63;;;256.40;1817.60;;;;;;5078304;28;20035;-60
2020/12/23 01:06:13;;;;;;;104.10;59.72;;;256.40;1817.60;;;;;;5078304;28;20052;-61
2020/12/23 01:08:39;;;;;;;100.60;60.45;;;256.60;1792.00;;;;;;5078183;28;20089;-62
2020/12/23 01:11:05;;;;;;;105.95;61.90;;;256.50;1817.60;;;;;;5076878;28;20027;-61
2020/12/23 01:13:32;;;;;;;105.50;62.38;;;256.40;1843.20;;;;;;5078160;28;20020;-61
2020/12/23 01:15:58;;;;;;;106.47;63.42;;;256.40;1843.20;;;;;;5077617;28;20032;-59
2020/12/23 01:18:24;;;;;;;100.93;60.22;;;256.50;1843.20;;;;;;5078234;28;20096;-60
2020/12/23 01:20:50;;;;;;;111.40;64.43;;;256.50;1843.20;;;;;;5077083;28;20390;-59
2020/12/23 01:23:16;;;;;;;103.65;64.78;;;256.20;1868.80;;;;;;5077152;28;20020;-62
2020/12/23 01:25:41;;;;;;;105.10;61.72;;;256.30;1868.80;;;;;;5078449;28;20077;-60
2020/12/23 01:28:07;;;;;;;103.65;62.03;;;256.40;1868.80;;;;;;5077915;28;20024;-62
2020/12/23 01:30:32;;;;;;;107.68;61.92;;;256.50;1843.20;;;;;;5077734;28;20505;-61
2020/12/23 01:32:58;;;;;;;110.07;61.78;;;256.70;1843.20;;;;;;5077428;28;20126;-61
2020/12/23 01:35:24;;;;;;;104.88;61.70;;;256.80;1843.20;;;;;;5077959;28;20458;-62
2020/12/23 01:37:50;;;;;;;107.75;63.75;;;256.90;1843.20;;;;;;5056866;28;20064;-61
2020/12/23 01:40:16;;;;;;;112.75;65.30;;;256.90;1843.20;;;;;;5074575;28;20163;-62
2020/12/23 01:42:41;;;;;;;109.45;64.10;;;256.90;1843.20;;;;;;5074560;28;20406;-60
2020/12/23 01:45:07;;;;;;;105.00;63.45;;;256.80;1843.20;;;;;;5074234;28;20431;-61
2020/12/23 01:47:33;;;;;;;103.63;64.82;;;256.70;1843.20;;;;;;5074209;28;20086;-62
2020/12/23 01:50:00;;;;;;;108.65;63.53;;;256.80;1843.20;;;;;;5074172;28;20021;-62
2020/12/23 01:52:27;;;;;;;99.20;64.70;;;256.60;1868.80;;;;;;5074564;28;20024;-62
2020/12/23 01:54:54;;;;;;;103.95;63.10;;;256.70;1868.80;;;;;;5073031;28;20028;-57
2020/12/23 01:57:21;;;;;;;100.32;63.20;;;256.80;1843.20;;;;;;5074611;28;20529;-61
2020/12/23 01:59:49;;;;;;;100.45;61.50;;;256.90;1843.20;;;;;;5074582;28;20037;-63
2020/12/23 02:02:25;;;;;;;;;;;281.60;1868.80;;;;;;5073108;28;20025;-62
2020/12/23 02:04:52;;;;;;;106.28;62.55;;;256.90;1843.20;;;;;;5061049;28;19968;-62
2020/12/23 02:07:19;;;;;;;100.22;58.70;;;281.60;1868.80;;;;;;5074590;28;20072;-61
2020/12/23 02:09:48;;;;;;;100.82;60.83;;;281.70;1843.20;;;;;;5073133;28;20656;-62
2020/12/23 02:12:15;;;;;;;95.45;56.38;;;281.70;1843.20;;;;;;5074202;28;20108;-61
2020/12/23 02:14:41;;;;;;;89.55;55.85;;;281.80;1843.20;;;;;;5074411;28;20020;-62
2020/12/23 02:17:07;;;;;;;92.43;55.10;;;281.80;1817.60;;;;;;5074246;28;20017;-58
2020/12/23 02:19:33;;;;;;;86.85;51.58;;;281.90;1817.60;;;;;;5074383;28;20041;-59
2020/12/23 02:22:00;;;;;;;81.80;49.35;;;281.90;1817.60;;;;;;5074237;28;20443;-62
2020/12/23 02:24:27;;;;;;;78.15;47.17;;;282.00;1792.00;;;;;;5074766;28;20027;-60
2020/12/23 02:26:54;;;;;;;75.63;46.85;;;282.10;1792.00;;;;;;5073753;28;20013;-61
2020/12/23 02:29:20;;;;;;;78.20;49.45;;;282.10;1792.00;;;;;;5073594;28;20025;-61
2020/12/23 02:31:45;;;;;;;79.80;47.85;;;282.10;1792.00;;;;;;5073907;28;20161;-61
2020/12/23 02:34:11;;;;;;;98.40;57.38;;;282.00;1792.00;;;;;;5074153;28;20036;-61
2020/12/23 02:36:37;;;;;;;103.22;62.47;;;282.00;1817.60;;;;;;5073664;28;20027;-61
2020/12/23 02:39:03;;;;;;;100.97;62.20;;;281.90;1817.60;;;;;;5074246;28;20139;-61
2020/12/23 02:41:29;;;;;;;108.88;65.22;;;281.90;1817.60;;;;;;5073719;28;20054;-60
2020/12/23 02:43:55;;;;;;;99.50;60.80;;;282.00;1817.60;;;;;;5073644;28;20398;-58
2020/12/23 02:46:20;;;;;;;99.53;59.85;;;281.90;1817.60;;;;;;5072670;28;20035;-61
2020/12/23 02:48:46;;;;;;;93.15;57.53;;;281.90;1817.60;;;;;;5072161;28;20063;-62
2020/12/23 02:51:12;;;;;;;88.05;53.95;;;282.00;1817.60;;;;;;5073770;28;20135;-61
2020/12/23 02:53:37;;;;;;;78.13;50.80;;;282.10;1792.00;;;;;;5073953;28;20029;-59
2020/12/23 02:56:03;;;;;;;77.93;49.33;;;282.10;1792.00;;;;;;5073718;28;20063;-61
2020/12/23 02:58:29;;;;;;;99.72;61.00;;;282.10;1792.00;;;;;;5073379;28;20466;-60
2020/12/23 03:00:55;;;;;;;96.70;59.33;;;282.00;1817.60;;;;;;5073401;28;20051;-59
2020/12/23 03:03:20;;;;;;;107.72;65.80;;;281.90;1817.60;;;;;;5072901;28;20459;-60
2020/12/23 03:05:46;;;;;;;104.35;63.63;;;281.90;1817.60;;;;;;5055597;28;20052;-60
2020/12/23 03:08:12;;;;;;;103.70;63.10;;;281.90;1817.60;;;;;;5073395;28;20032;-57
2020/12/23 03:10:38;;;;;;;94.60;57.97;;;281.90;1817.60;;;;;;5073452;28;20126;-60
2020/12/23 03:13:04;;;;;;;95.15;57.50;;;281.90;1817.60;;;;;;5072954;28;20099;-61
2020/12/23 03:15:29;;;;;;;93.07;56.67;;;282.00;1817.60;;;;;;5073385;28;20766;-57
2020/12/23 03:17:55;;;;;;;93.50;56.97;;;282.00;1817.60;;;;;;5073248;28;20020;-61
2020/12/23 03:20:21;;;;;;;93.55;56.40;;;282.00;1792.00;;;;;;5072875;28;20432;-58
2020/12/23 03:22:46;;;;;;;87.85;52.92;;;282.00;1817.60;;;;;;5073020;28;20048;-61
2020/12/23 03:25:12;;;;;;;84.68;51.30;;;282.10;1792.00;;;;;;5073259;28;20037;-60
2020/12/23 03:27:38;;;;;;;74.28;44.95;;;282.20;1792.00;;;;;;5072934;28;20069;-61
2020/12/23 03:30:04;;;;;;;77.63;45.65;;;282.30;1766.40;;;;;;5073177;28;20031;-61
2020/12/23 03:32:30;;;;;;;76.47;47.25;;;282.40;1766.40;;;;;;5072442;28;20025;-56
2020/12/23 03:34:56;;;;;;;68.65;42.88;;;282.50;1740.80;;;;;;5070787;28;20032;-58
2020/12/23 03:37:21;;;;;;;66.15;39.63;;;307.20;1766.40;;;;;;5072670;28;20020;-58
2020/12/23 03:39:48;;;;;;;69.65;42.00;;;307.20;1766.40;;;;;;5072866;28;20040;-60
2020/12/23 03:42:13;;;;;;;64.35;41.08;;;307.20;1766.40;;;;;;5072593;28;20021;-55
2020/12/23 03:44:39;;;;;;;68.25;41.92;;;307.20;1766.40;;;;;;5072965;28;20024;-56
2020/12/23 03:47:05;;;;;;;61.45;38.72;;;307.30;1740.80;;;;;;5072373;28;20434;-61
2020/12/23 03:49:30;;;;;;;56.10;35.38;;;307.30;1740.80;;;;;;5072899;28;20032;-56
2020/12/23 03:51:56;;;;;;;57.53;35.22;;;307.50;1715.20;;;;;;5072029;28;20451;-61
2020/12/23 03:54:21;;;;;;;53.63;34.55;;;307.50;1715.20;;;;;;5072831;28;20039;-56
2020/12/23 03:56:47;;;;;;;57.28;35.00;;;307.50;1715.20;;;;;;5072537;28;20028;-61
2020/12/23 03:59:13;;;;;;;54.65;35.00;;;307.60;1715.20;;;;;;5072249;28;20449;-62
2020/12/23 04:01:39;;;;;;;51.40;33.45;;;307.60;1715.20;;;;;;5071923;28;20431;-61
2020/12/23 04:04:04;;;;;;;52.30;34.35;;;307.60;1689.60;;;;;;5072521;28;20060;-62
2020/12/23 04:06:30;;;;;;;56.05;33.50;;;307.60;1715.20;;;;;;5072470;28;20114;-59
2020/12/23 04:08:56;;;;;;;46.88;32.28;;;307.60;1715.20;;;;;;5072408;28;20020;-62
2020/12/23 04:11:21;;;;;;;52.83;33.42;;;307.60;1715.20;;;;;;5072332;28;20036;-61
2020/12/23 04:13:47;;;;;;;51.90;33.55;;;307.60;1715.20;;;;;;5072426;28;20020;-61
2020/12/23 04:16:13;;;;;;;56.55;32.88;;;307.60;1689.60;;;;;;5072398;28;20028;-61
2020/12/23 04:18:38;;;;;;;49.65;32.25;;;307.60;1715.20;;;;;;5072514;28;20107;-56
2020/12/23 04:21:04;;;;;;;51.72;32.38;;;307.60;1715.20;;;;;;5072155;28;20032;-61
2020/12/23 04:23:29;;;;;;;50.67;33.22;;;307.60;1689.60;;;;;;5072211;28;20025;-56
2020/12/23 04:25:55;;;;;;;52.97;33.03;;;307.60;1715.20;;;;;;5072290;28;20455;-62
2020/12/23 04:28:21;;;;;;;53.00;32.42;;;307.60;1715.20;;;;;;5072286;28;20518;-59
2020/12/23 04:30:47;;;;;;;53.35;33.90;;;307.60;1715.20;;;;;;5072231;28;20024;-57
2020/12/23 04:33:15;;;;;;;55.05;33.30;;;307.70;1689.60;;;;;;5072106;28;20477;-59
2020/12/23 04:35:40;;;;;;;48.15;30.67;;;307.60;1689.60;;;;;;5072419;28;20094;-56
2020/12/23 04:38:06;;;;;;;49.85;32.40;;;307.60;1715.20;;;;;;5072093;28;20020;-58
2020/12/23 04:40:32;;;;;;;50.67;30.50;;;307.60;1689.60;;;;;;5072536;28;20037;-61
2020/12/23 04:42:58;;;;;;;47.17;29.45;;;307.60;1689.60;;;;;;5071839;28;20028;-57
2020/12/23 04:45:24;;;;;;;51.20;31.05;;;307.50;1715.20;;;;;;5072242;28;20039;-61
2020/12/23 04:47:55;;;;;;;66.22;40.33;;;307.40;1715.20;;;;;;5072201;28;20143;-61
2020/12/23 04:50:22;;;;;;;74.18;48.22;;;307.30;1740.80;;;;;;5072268;28;20074;-62
2020/12/23 04:52:48;;;;;;;81.10;48.83;;;282.40;1766.40;;;;;;5072031;28;20024;-61
2020/12/23 04:55:14;;;;;;;83.28;48.60;;;281.90;1792.00;;;;;;5072218;28;20051;-60
2020/12/23 04:57:40;;;;;;;82.05;50.78;;;281.80;1817.60;;;;;;5071908;28;20447;-60
2020/12/23 05:00:07;;;;;;;84.93;49.40;;;281.60;1843.20;;;;;;5072071;28;20028;-60
2020/12/23 05:02:33;;;;;;;85.57;51.78;;;256.60;1843.20;;;;;;5070351;28;20043;-60
2020/12/23 05:04:59;;;;;;;82.15;50.25;;;256.70;1843.20;;;;;;5069022;28;20394;-60
2020/12/23 05:07:24;;;;;;;83.47;52.15;;;256.50;1868.80;;;;;;5071709;28;20098;-61
2020/12/23 05:09:51;;;;;;;84.10;51.33;;;256.10;1894.40;;;;;;5072067;28;20016;-61
2020/12/23 05:12:20;;;;;;;90.28;52.95;;;256.30;1894.40;;;;;;5074121;28;20063;-61
2020/12/23 05:14:46;;;;;;;86.18;50.85;;;256.40;1868.80;;;;;;5075666;28;20142;-56
2020/12/23 05:17:12;;;;;;;91.45;52.13;;;256.40;1868.80;;;;;;5075639;28;20016;-61
2020/12/23 05:19:39;;;;;;;87.55;53.03;;;256.40;1868.80;;;;;;5075342;28;20108;-56
2020/12/23 05:22:08;;;;;;;86.70;52.90;;;256.30;1868.80;;;;;;5075398;28;20020;-56
2020/12/23 05:24:38;;;;;;;93.00;50.10;;;256.10;1894.40;;;;;;5075437;28;20075;-56
2020/12/23 05:27:06;;;;;;;82.70;51.45;;;256.10;1894.40;;;;;;5075308;28;20028;-60
2020/12/23 05:29:32;;;;;;;95.68;51.63;;;256.00;1894.40;;;;;;5075825;28;20077;-60
2020/12/23 05:31:58;;;;;;;89.97;50.80;;;231.20;1920.00;;;;;;5075298;28;20028;-56
2020/12/23 05:34:24;;;;;;;83.75;48.80;;;231.10;1945.60;;;;;;5074762;28;20386;-60
2020/12/23 05:36:51;;;;;;;83.38;50.80;;;231.20;1920.00;;;;;;5075238;28;20012;-61
2020/12/23 05:39:17;;;;;;;91.57;52.28;;;231.20;1920.00;;;;;;5075176;28;20577;-56
2020/12/23 05:41:46;;;;;;;93.30;52.80;;;231.00;1945.60;;;;;;5073876;28;20107;-61
2020/12/23 05:44:16;;;;;;;90.93;51.67;;;231.10;1945.60;;;;;;5075196;28;20103;-60
2020/12/23 05:46:44;;;;;;;85.03;51.97;;;231.10;1945.60;;;;;;5075192;28;20024;-62
2020/12/23 05:49:11;;;;;;;80.13;49.22;;;231.10;1945.60;;;;;;5075216;28;20420;-56
2020/12/23 05:51:37;;;;;;;87.40;53.08;;;231.10;1945.60;;;;;;5075012;28;20113;-56
2020/12/23 05:54:05;;;;;;;89.38;52.40;;;231.00;1945.60;;;;;;5074722;28;20607;-61
2020/12/23 05:56:38;;;;;;;86.20;50.40;;;231.10;1945.60;;;;;;5074848;28;20024;-61
2020/12/23 05:59:04;;;;;;;86.80;54.08;;;230.90;1945.60;;;;;;5074564;28;20032;-61
2020/12/23 06:01:36;;;;;;;86.03;52.92;;;230.80;1996.80;;;;;;5074846;28;20025;-62
2020/12/23 06:04:12;;;;;;;92.32;53.50;;;230.90;1971.20;;;;;;5074474;28;20047;-61
2020/12/23 06:06:45;;;;;;;89.72;51.90;;;231.00;1945.60;;;;;;5074648;28;20129;-59
2020/12/23 06:09:11;;;;;;;84.88;52.75;;;231.00;1945.60;;;;;;5074518;28;20132;-59
2020/12/23 06:11:40;;;;;;;94.57;53.17;;;231.10;1945.60;;;;;;5074427;28;20020;-60
2020/12/23 06:14:05;;;;;;;83.22;52.25;;;231.00;1945.60;;;;;;5074323;28;20031;-56
2020/12/23 06:16:33;;;;;;;93.50;53.45;;;231.10;1945.60;;;;;;5074569;28;20025;-56
2020/12/23 06:19:01;;;;;;;90.93;53.63;;;231.10;1945.60;;;;;;5074542;28;20032;-61
2020/12/23 06:21:27;;;;;;;87.10;52.20;;;231.20;1945.60;;;;;;5074181;28;20523;-59
2020/12/23 06:24:07;;;;;;;89.28;53.80;;;231.20;1945.60;;;;;;5055579;28;20451;-58
2020/12/23 06:26:35;;;;;;;86.95;53.70;;;231.20;1945.60;;;;;;5074464;28;20411;-60
2020/12/23 06:29:04;;;;;;;89.32;54.00;;;231.20;1945.60;;;;;;5056656;28;20390;-57
2020/12/23 06:31:51;;;;;;;96.00;56.40;;;231.20;1945.60;;;;;;5074005;28;20365;-60
2020/12/23 06:34:22;;;;;;;103.53;56.08;;;231.10;1945.60;;;;;;5073650;28;20064;-61
2020/12/23 06:36:49;;;;;;;89.57;54.75;;;231.10;1945.60;;;;;;5073782;28;20035;-56
2020/12/23 06:39:40;;;;;;;85.43;54.63;;;231.10;1945.60;;;;;;5074194;28;20064;-57
2020/12/23 06:42:06;;;;;;;91.97;53.65;;;231.20;1945.60;;;;;;5073819;28;20105;-62
2020/12/23 06:44:43;;;;;;;91.05;56.28;;;231.20;1945.60;;;;;;5074061;28;20106;-61
2020/12/23 06:47:20;;;;;;;90.75;53.47;;;231.20;1945.60;;;;;;5073827;28;20059;-61
2020/12/23 06:49:46;;;;;;;92.72;55.97;;;231.30;1945.60;;;;;;5073867;28;20017;-61
2020/12/23 06:52:27;;;;;;;90.55;55.13;;;256.00;1945.60;;;;;;5073444;28;20037;-56
2020/12/23 06:55:12;;;;;;;92.07;54.65;;;256.10;1920.00;;;;;;5073948;28;20028;-61
2020/12/23 06:57:37;;;;;;;93.40;55.72;;;256.20;1920.00;;;;;;5073557;28;20013;-62
2020/12/23 07:00:03;;;;;;;98.15;55.92;;;256.30;1920.00;;;;;;5073552;28;20364;-61
2020/12/23 07:02:32;;;;;;;95.30;58.30;;;256.40;1894.40;;;;;;5073562;28;20462;-56
2020/12/23 07:04:58;;;;;;;;;;;256.40;1894.40;;;;;;5073897;28;20115;-62
2020/12/23 07:07:39;;;;;;;96.47;55.60;;;256.50;1894.40;;;;;;5073377;28;19995;-56
2020/12/23 07:10:25;;;;;;;87.57;54.50;;;256.50;1894.40;;;;;;5073687;28;20020;-56
2020/12/23 07:13:11;;;;;;;97.93;56.90;;;256.60;1894.40;;;;;;5073507;28;20020;-60
2020/12/23 07:15:39;;;;;;;94.20;55.50;;;256.70;1920.00;;;;;;5073244;28;20108;-64
2020/12/23 07:18:06;;;;;;;91.32;55.45;;;256.80;1894.40;;;;;;5073365;28;20024;-56
2020/12/23 07:20:37;;;;;;;92.35;54.70;;;256.80;1894.40;;;;;;5073266;28;20602;-61
2020/12/23 07:23:09;;;;;;;85.60;53.30;;;256.80;1894.40;;;;;;5072840;28;20031;-57
2020/12/23 07:25:47;;;;;;;94.78;54.75;;;256.90;1868.80;;;;;;5073288;28;20028;-61
2020/12/23 07:28:18;;;;;;;92.90;53.33;;;281.70;1894.40;;;;;;5073017;28;20031;-60
2020/12/23 07:30:45;;;;;;;86.05;53.15;;;282.00;2048.00;;;;;;5072307;28;20488;-61
2020/12/23 07:33:22;;;;;;;90.10;51.80;;;282.00;1868.80;;;;;;5072770;28;20032;-61
2020/12/23 07:35:50;;;;;;;76.40;48.83;;;282.00;1843.20;;;;;;5072033;28;20107;-61
2020/12/23 07:38:17;;;;;;;72.10;47.88;;;282.20;1817.60;;;;;;5072938;28;20017;-55
2020/12/23 07:40:43;;;;;;;79.47;51.38;;;282.10;1817.60;;;;;;5072851;28;20048;-60
2020/12/23 07:43:11;;;;;;;107.15;64.78;;;282.00;1843.20;;;;;;5072647;28;20375;-60
2020/12/23 07:45:37;;;;;;;110.68;70.05;;;282.10;1843.20;;;;;;5072626;28;20025;-64
2020/12/23 07:48:07;;;;;;;114.47;68.68;;;282.10;1817.60;;;;;;5071258;28;20024;-60
2020/12/23 07:50:38;;;;;;;120.28;73.18;;;282.20;1817.60;;;;;;5065118;28;20033;-60
2020/12/23 07:53:17;;;;;;;117.70;73.95;;;282.20;1792.00;;;;;;5072592;28;20025;-60
2020/12/23 07:55:44;;;;;;;;;;;282.20;1792.00;;;;;;5072952;28;20036;-58
2020/12/23 07:58:10;;;;;;;131.55;80.97;;;282.20;1792.00;;;;;;5072404;28;20017;-57
2020/12/23 08:00:37;;;;;;;142.32;91.07;;;282.10;1792.00;;;;;;5069142;28;20495;-60
2020/12/23 08:03:07;;;;;;;148.13;91.55;;;282.10;1817.60;;;;;;5070356;28;20025;-60
2020/12/23 08:05:34;;;;;;;156.25;95.82;;;282.10;1792.00;;;;;;5071629;28;20509;-61
2020/12/23 08:07:59;;;;;;;154.18;96.43;;;282.10;1792.00;;;;;;5072105;28;20027;-59
2020/12/23 08:10:25;;;;;;;139.43;90.05;;;282.10;1792.00;;;;;;5070255;28;20024;-59
2020/12/23 08:12:58;;;;;;;131.50;83.63;;;282.20;1792.00;;;;;;5071854;28;20059;-59
2020/12/23 08:15:26;;;;;;;118.88;75.45;;;282.20;1792.00;;;;;;5071783;28;20044;-59
2020/12/23 08:18:00;;;;;;;120.97;76.80;;;282.20;1792.00;;;;;;5071836;28;20032;-58
2020/12/23 08:20:26;;;;;;;119.05;75.28;;;282.30;1766.40;;;;;;5069308;28;20549;-59
2020/12/23 08:22:51;;;;;;;115.60;72.80;;;282.30;1766.40;;;;;;5071204;28;20115;-60
2020/12/23 08:25:19;;;;;;;120.28;75.72;;;282.30;1766.40;;;;;;5070949;28;20013;-61
2020/12/23 08:27:47;;;;;;;119.70;73.03;;;282.30;1792.00;;;;;;5070265;28;20017;-59
2020/12/23 08:30:24;;;;;;;112.72;74.20;;;282.20;1792.00;;;;;;5069992;28;20090;-58
2020/12/23 08:33:13;;;;;;;109.55;72.45;;;282.20;1792.00;;;;;;5070559;28;20119;-59
2020/12/23 08:35:43;;;;;;;120.50;74.82;;;282.40;1792.00;;;;;;5069744;28;20517;-58
2020/12/23 08:38:20;;;;;;;128.27;82.93;;;282.50;1766.40;;;;;;5070013;28;20033;-57
2020/12/23 08:40:47;;;;;;;131.73;82.97;;;307.20;1792.00;;;;;;5070066;28;20375;-59
2020/12/23 08:43:21;;;;;;;126.38;81.47;;;307.20;1792.00;;;;;;5069672;28;20021;-58
2020/12/23 08:45:48;;;;;;;132.90;80.97;;;282.50;1766.40;;;;;;5069714;28;20474;-60
2020/12/23 08:48:18;;;;;;;125.72;76.50;;;307.20;1792.00;;;;;;5055740;28;20027;-62
2020/12/23 08:51:11;;;;;;;121.25;77.80;;;282.50;1766.40;;;;;;5072324;28;20024;-61
2020/12/23 08:53:38;;;;;;;121.25;78.63;;;307.40;1766.40;;;;;;5061987;28;20067;-60
2020/12/23 08:56:23;;;;;;;131.60;78.53;;;307.60;1766.40;;;;;;5071793;28;20028;-61
2020/12/23 08:58:50;;;;;;;124.82;77.63;;;307.70;1740.80;;;;;;5073385;28;20112;-61
2020/12/23 09:01:26;;;;;;;123.03;74.05;;;307.70;1740.80;;;;;;5072962;28;20028;-61
2020/12/23 09:04:08;;;;;;;127.40;79.68;;;307.80;1740.80;;;;;;5073202;28;20025;-61
2020/12/23 09:06:39;;;;;;;127.65;80.28;;;307.80;1715.20;;;;;;5072708;28;20098;-61
2020/12/23 09:09:15;;;;;;;127.18;77.10;;;307.80;1715.20;;;;;;5073143;28;20107;-61
2020/12/23 09:11:51;;;;;;;134.95;80.70;;;308.00;1715.20;;;;;;5073757;28;20037;-62
2020/12/23 09:14:21;;;;;;;112.97;73.15;;;308.00;1715.20;;;;;;5055117;28;20359;-64
2020/12/23 09:16:53;;;;;;;124.95;75.88;;;308.00;1689.60;;;;;;5054809;28;20032;-61
2020/12/23 09:19:19;;;;;;;120.28;73.72;;;332.80;1715.20;;;;;;5054387;28;20037;-60
2020/12/23 09:21:55;;;;;;;120.47;69.82;;;308.10;1689.60;;;;;;5071293;28;20020;-60
2020/12/23 09:24:22;;;;;;;113.50;69.90;;;308.10;1715.20;;;;;;5074294;28;20481;-61
2020/12/23 09:26:48;;;;;;;113.30;67.63;;;332.80;1715.20;;;;;;5075395;28;20115;-57
2020/12/23 09:29:14;;;;;;;142.18;81.53;;;333.00;1715.20;;;;;;5075195;28;20451;-57
2020/12/23 09:31:54;;;;;;;117.60;76.40;;;333.00;1689.60;;;;;;5075124;28;20032;-59
2020/12/23 09:34:23;;;;;;;123.70;83.82;;;333.00;1689.60;;;;;;5073267;28;20391;-58
2020/12/23 09:36:56;;;;;;;125.85;87.95;;;333.10;1689.60;;;;;;5068175;28;20036;-59
2020/12/23 09:39:22;;;;;;;143.20;100.72;;;333.20;1664.00;;;;;;5075387;28;20033;-57
2020/12/23 09:42:20;;;;;;;135.60;96.32;;;333.20;1664.00;;;;;;5075428;28;20024;-57
2020/12/23 09:44:46;;;;;;;133.18;98.95;;;333.30;1664.00;;;;;;4993187;28;20034;-57
2020/12/23 09:47:11;;;;;;;129.73;92.15;;;333.40;1664.00;;;;;;4993536;28;20030;-57
2020/12/23 09:49:37;;;;;;;133.05;94.20;;;333.40;1664.00;;;;;;4993573;28;20073;-57
2020/12/23 09:52:02;;;;;;;130.20;84.22;;;333.50;1638.40;;;;;;4993576;28;20178;-58
2020/12/23 09:54:28;;;;;;;125.03;84.25;;;333.40;1638.40;;;;;;4993360;28;20042;-58
2020/12/23 09:56:54;;;;;;;117.32;79.65;;;333.50;1638.40;;;;;;4992919;28;20027;-57
2020/12/23 09:59:20;;;;;;;114.93;80.45;;;333.50;1638.40;;;;;;4992422;28;20062;-57
2020/12/23 10:01:47;;;;;;;106.10;73.55;;;333.60;1638.40;;;;;;4992938;28;20074;-57
2020/12/23 10:04:13;;;;;;;114.05;75.50;;;333.70;1638.40;;;;;;4993352;28;20042;-58
2020/12/23 10:06:39;;;;;;;108.55;70.85;;;358.40;1612.80;;;;;;4992694;28;20042;-57
2020/12/23 10:09:05;;;;;;;105.35;67.25;;;333.70;1612.80;;;;;;4993378;28;20114;-58
2020/12/23 10:11:32;;;;;;;98.10;66.15;;;333.70;1612.80;;;;;;4993103;28;20109;-57
2020/12/23 10:13:59;;;;;;;103.32;64.60;;;358.40;1612.80;;;;;;4992963;28;20139;-58
2020/12/23 10:16:34;;;;;;;96.45;63.92;;;358.50;1612.80;;;;;;4992746;28;20023;-57
2020/12/23 10:19:01;;;;;;;98.93;63.20;;;358.60;1587.20;;;;;;4993127;28;20018;-57
2020/12/23 10:21:27;;;;;;;94.47;63.65;;;358.70;1587.20;;;;;;5061693;28;20044;-57
2020/12/23 10:23:53;;;;;;;97.50;63.08;;;358.80;1561.60;;;;;;5074390;28;20063;-57
2020/12/23 10:26:19;;;;;;;87.63;60.08;;;358.80;1561.60;;;;;;5074324;28;20052;-57
2020/12/23 10:28:45;;;;;;;93.45;62.22;;;358.90;1561.60;;;;;;5074293;28;20025;-58
2020/12/23 10:31:11;;;;;;;92.97;60.95;;;358.90;1536.00;;;;;;5074062;28;20048;-56
2020/12/23 10:33:37;;;;;;;90.32;59.78;;;359.00;1536.00;;;;;;5074041;28;20037;-57
2020/12/23 10:36:07;;;;;;;87.43;58.92;;;359.10;1536.00;;;;;;5074101;28;20496;-57
2020/12/23 10:38:33;;;;;;;90.90;59.13;;;359.20;1536.00;;;;;;5074118;28;20510;-58
2020/12/23 10:40:59;;;;;;;90.72;56.88;;;359.10;1536.00;;;;;;5073878;28;20034;-58
2020/12/23 10:43:25;;;;;;;83.40;55.17;;;359.30;1536.00;;;;;;5073934;28;20471;-57
2020/12/23 10:45:50;;;;;;;83.55;54.28;;;359.30;1536.00;;;;;;5073830;28;20103;-57
2020/12/23 10:48:17;;;;;;;79.22;52.08;;;384.00;1510.40;;;;;;5073745;28;20051;-57
2020/12/23 10:50:44;;;;;;;80.07;50.65;;;384.10;1510.40;;;;;;5073886;28;20032;-57
2020/12/23 10:53:10;;;;;;;73.20;49.45;;;384.10;1510.40;;;;;;5073668;28;20024;-59
2020/12/23 10:55:36;;;;;;;73.07;49.38;;;384.00;1484.80;;;;;;5074159;28;20031;-59
2020/12/23 10:58:02;;;;;;;78.13;50.42;;;384.10;1484.80;;;;;;5073520;28;20063;-57
2020/12/23 11:00:28;;;;;;;71.65;48.45;;;384.20;1484.80;;;;;;5072623;28;20040;-57
2020/12/23 11:02:54;;;;;;;69.95;48.83;;;384.30;1484.80;;;;;;5071485;28;20020;-57
2020/12/23 11:05:20;;;;;;;72.10;46.20;;;384.50;1484.80;;;;;;5073174;28;20057;-58
2020/12/23 11:07:47;;;;;;;63.03;44.38;;;384.40;1459.20;;;;;;5073477;28;20029;-57
2020/12/23 11:10:14;;;;;;;70.18;43.90;;;384.40;1459.20;;;;;;5072933;28;20024;-57
2020/12/23 11:12:39;;;;;;;63.17;43.15;;;384.60;1433.60;;;;;;5072940;28;20055;-57
2020/12/23 11:15:05;;;;;;;64.80;41.45;;;384.70;1459.20;;;;;;5073406;28;20048;-57
2020/12/23 11:17:31;;;;;;;66.63;42.60;;;384.80;1408.00;;;;;;5072722;28;20034;-57
2020/12/23 11:19:57;;;;;;;63.05;41.63;;;384.90;1408.00;;;;;;5073177;28;20390;-59
2020/12/23 11:22:23;;;;;;;72.65;44.60;;;384.90;1408.00;;;;;;5054674;28;20036;-57
2020/12/23 11:24:48;;;;;;;64.03;42.10;;;384.80;1408.00;;;;;;5073038;28;20028;-59
2020/12/23 11:27:17;;;;;;;55.35;35.88;;;384.90;1408.00;;;;;;5073025;28;20162;-57
2020/12/23 11:29:44;;;;;;;51.22;34.00;;;384.80;1408.00;;;;;;5069979;28;20124;-61
2020/12/23 11:32:09;;;;;;;54.38;33.90;;;384.90;1408.00;;;;;;5052895;28;20382;-62
2020/12/23 11:34:35;;;;;;;53.80;33.00;;;384.90;1408.00;;;;;;5069565;28;20032;-61
2020/12/23 11:37:01;;;;;;;52.75;33.60;;;384.80;1408.00;;;;;;5072374;28;20062;-55
2020/12/23 11:39:28;;;;;;;53.80;33.95;;;384.80;1408.00;;;;;;5072458;28;20048;-56
2020/12/23 11:41:57;;;;;;;55.70;34.08;;;384.90;1408.00;;;;;;5071850;28;20387;-57
2020/12/23 11:44:24;;;;;;;57.05;33.88;;;409.60;1433.60;;;;;;5072834;28;20108;-57
2020/12/23 11:46:50;;;;;;;45.33;26.70;;;409.60;1433.60;;;;;;5070044;28;20095;-57
2020/12/23 11:49:16;;;;;;;47.22;29.00;;;384.90;1382.40;;;;;;5072284;28;20025;-56
2020/12/23 11:51:42;;;;;;;42.90;26.50;;;384.80;1382.40;;;;;;5072198;28;20081;-56
2020/12/23 11:54:08;;;;;;;37.63;24.73;;;409.60;1408.00;;;;;;5072847;28;20374;-56
2020/12/23 11:56:34;;;;;;;43.08;26.83;;;409.60;1408.00;;;;;;5072569;28;20385;-57
2020/12/23 11:59:00;;;;;;;40.33;26.15;;;409.80;1382.40;;;;;;5072547;28;20043;-57